Time;durP1;ratioP1;P1;durP2;ratioP2;P2;SDS_P1;SDS_P2;PMS_P1;PMS_P2;Temp;Humidity;BMP_temperature;BMP_pressure;BME280_temperature;BME280_humidity;BME280_pressure;Samples;Min_cycle;Max_cycle;Signal;HPM_P1;HPM_P2
2021/04/20 00:02:10;;;;;;;23.92;17.45;;;;;;;;;;4979028;28;20035;-85
2021/04/20 00:04:36;;;;;;;24.15;17.88;;;;;;;;;;4979196;28;20026;-84
2021/04/20 00:07:03;;;;;;;25.40;17.45;;;;;;;;;;4979293;28;20031;-84
2021/04/20 00:09:29;;;;;;;24.38;18.00;;;;;;;;;;4978906;28;20038;-84
2021/04/20 00:11:55;;;;;;;28.13;19.17;;;;;;;;;;4978669;28;20042;-84
2021/04/20 00:14:21;;;;;;;27.63;18.42;;;;;;;;;;4978657;28;20019;-83
2021/04/20 00:16:47;;;;;;;28.95;19.77;;;;;;;;;;4978261;28;20019;-83
2021/04/20 00:22:16;;;;;;;30.10;20.50;;;;;;;;;;4962553;28;20432;-83
2021/04/20 00:24:42;;;;;;;34.00;22.60;;;;;;;;;;4978849;28;20023;-83
2021/04/20 00:27:08;;;;;;;33.60;22.35;;;;;;;;;;4978783;28;20022;-83
2021/04/20 00:29:35;;;;;;;31.30;21.85;;;;;;;;;;4978426;28;20035;-83
2021/04/20 00:32:01;;;;;;;28.30;21.02;;;;;;;;;;4961068;28;20038;-83
2021/04/20 00:37:30;;;;;;;30.02;20.40;;;;;;;;;;4978874;28;20374;-83
2021/04/20 00:39:57;;;;;;;30.98;21.27;;;;;;;;;;4978454;28;20030;-83
2021/04/20 00:42:23;;;;;;;29.90;21.45;;;;;;;;;;4978716;28;20066;-83
2021/04/20 00:44:49;;;;;;;31.73;22.30;;;;;;;;;;4978803;28;20027;-84
2021/04/20 00:47:15;;;;;;;33.47;23.77;;;;;;;;;;4978693;28;20027;-84
2021/04/20 00:49:41;;;;;;;33.03;23.42;;;;;;;;;;4961344;28;20029;-83
2021/04/20 00:52:08;;;;;;;31.30;22.63;;;;;;;;;;4960999;28;20082;-84
2021/04/20 00:54:34;;;;;;;31.98;23.02;;;;;;;;;;4978558;28;20069;-83
2021/04/20 00:57:00;;;;;;;32.20;22.25;;;;;;;;;;4978490;28;20019;-82
2021/04/20 00:59:26;;;;;;;29.20;21.13;;;;;;;;;;4978509;28;20049;-83
2021/04/20 01:01:52;;;;;;;30.98;21.45;;;;;;;;;;4977991;28;20033;-83
2021/04/20 01:04:55;;;;;;;29.27;20.83;;;;;;;;;;4978213;28;20027;-82
2021/04/20 01:07:22;;;;;;;32.30;22.10;;;;;;;;;;4978028;28;20070;-82
2021/04/20 01:09:49;;;;;;;34.58;23.95;;;;;;;;;;4977952;28;20321;-82
2021/04/20 01:12:15;;;;;;;33.47;23.05;;;;;;;;;;4978205;28;20035;-82
2021/04/20 01:14:41;;;;;;;36.22;24.52;;;;;;;;;;4977932;28;20122;-83
2021/04/20 01:17:07;;;;;;;36.83;25.13;;;;;;;;;;4978274;28;20015;-82
2021/04/20 01:19:33;;;;;;;36.83;25.30;;;;;;;;;;4978010;28;20063;-83
2021/04/20 01:22:00;;;;;;;39.78;26.90;;;;;;;;;;4978139;28;20058;-83
2021/04/20 01:24:28;;;;;;;43.88;28.30;;;;;;;;;;4977751;28;20033;-83
2021/04/20 01:26:55;;;;;;;44.10;28.10;;;;;;;;;;4977851;28;20251;-82
2021/04/20 01:29:24;;;;;;;40.42;26.08;;;;;;;;;;4981360;28;20031;-82
2021/04/20 01:31:51;;;;;;;41.47;27.35;;;;;;;;;;4981400;28;20038;-82
2021/04/20 01:34:54;;;;;;;45.13;27.73;;;;;;;;;;4981690;28;20022;-83
2021/04/20 01:37:20;;;;;;;56.22;31.02;;;;;;;;;;4981252;28;20023;-82
2021/04/20 01:39:47;;;;;;;62.95;33.05;;;;;;;;;;4981315;28;20066;-83
2021/04/20 01:42:13;;;;;;;54.05;30.67;;;;;;;;;;4981541;28;20035;-82
2021/04/20 01:44:39;;;;;;;50.80;29.95;;;;;;;;;;4981246;28;20054;-83
2021/04/20 01:47:06;;;;;;;43.13;28.92;;;;;;;;;;4963740;28;20045;-82
2021/04/20 01:49:32;;;;;;;44.72;27.33;;;;;;;;;;4981180;28;20052;-83
2021/04/20 01:51:59;;;;;;;36.85;25.88;;;;;;;;;;4981051;28;20031;-82
2021/04/20 01:54:25;;;;;;;38.55;26.08;;;;;;;;;;4981422;28;20035;-82
2021/04/20 01:56:51;;;;;;;35.78;24.15;;;;;;;;;;4963887;28;20042;-83
2021/04/20 01:59:18;;;;;;;35.63;23.00;;;;;;;;;;4981282;28;20026;-83
2021/04/20 02:01:45;;;;;;;37.42;22.88;;;;;;;;;;4963829;28;20320;-83
2021/04/20 02:04:11;;;;;;;40.17;23.40;;;;;;;;;;4963910;28;20027;-83
2021/04/20 02:06:37;;;;;;;35.08;22.65;;;;;;;;;;4963859;28;20026;-83
2021/04/20 02:09:04;;;;;;;38.70;22.92;;;;;;;;;;4980900;28;20114;-83
2021/04/20 02:11:30;;;;;;;30.02;21.23;;;;;;;;;;4980931;28;20041;-83
2021/04/20 02:14:00;;;;;;;31.30;20.92;;;;;;;;;;4963464;28;20031;-83
2021/04/20 02:16:26;;;;;;;30.25;20.95;;;;;;;;;;4980921;28;20023;-83
2021/04/20 02:19:13;;;;;;;30.73;20.63;;;;;;;;;;4963286;28;20067;-83
2021/04/20 02:21:39;;;;;;;33.75;22.30;;;;;;;;;;4963016;28;20035;-82
2021/04/20 02:24:06;;;;;;;30.33;20.50;;;;;;;;;;4980851;28;20034;-82
2021/04/20 02:26:34;;;;;;;31.30;20.63;;;;;;;;;;4980526;28;20126;-82
2021/04/20 02:29:01;;;;;;;31.20;20.90;;;;;;;;;;4980779;28;20029;-83
2021/04/20 02:31:27;;;;;;;29.95;20.20;;;;;;;;;;4980283;28;20038;-82
2021/04/20 02:33:55;;;;;;;32.50;21.95;;;;;;;;;;4980503;28;20030;-82
2021/04/20 02:36:21;;;;;;;32.00;21.27;;;;;;;;;;4980321;28;20023;-82
2021/04/20 02:38:47;;;;;;;30.40;21.50;;;;;;;;;;4980048;28;20034;-82
2021/04/20 02:41:16;;;;;;;30.45;21.77;;;;;;;;;;4979988;28;20031;-82
2021/04/20 02:43:42;;;;;;;28.27;20.63;;;;;;;;;;4980440;28;20073;-82
2021/04/20 02:46:08;;;;;;;31.35;20.80;;;;;;;;;;4980386;28;20030;-83
2021/04/20 02:48:53;;;;;;;29.27;21.85;;;;;;;;;;4980159;28;20325;-83
2021/04/20 02:51:19;;;;;;;32.63;22.52;;;;;;;;;;4980086;28;20027;-82
2021/04/20 02:53:45;;;;;;;31.77;22.13;;;;;;;;;;4980271;28;20106;-83
2021/04/20 02:56:13;;;;;;;34.25;23.33;;;;;;;;;;4980028;28;20023;-83
2021/04/20 02:58:39;;;;;;;38.72;26.15;;;;;;;;;;4980274;28;20417;-84
2021/04/20 03:01:06;;;;;;;36.47;25.10;;;;;;;;;;4962980;28;20030;-84
2021/04/20 03:03:42;;;;;;;34.25;23.95;;;;;;;;;;4980210;28;20049;-84
2021/04/20 03:06:08;;;;;;;41.17;27.38;;;;;;;;;;4979743;28;20030;-82
2021/04/20 03:08:35;;;;;;;39.70;27.73;;;;;;;;;;4980006;28;20027;-82
2021/04/20 03:11:04;;;;;;;46.25;29.15;;;;;;;;;;4979922;28;20030;-82
2021/04/20 03:13:32;;;;;;;49.58;29.33;;;;;;;;;;4979649;28;20027;-84
2021/04/20 03:15:58;;;;;;;50.80;30.17;;;;;;;;;;4979507;28;20027;-82
2021/04/20 03:19:01;;;;;;;59.28;32.28;;;;;;;;;;4979616;28;20031;-82
2021/04/20 03:21:27;;;;;;;52.35;30.35;;;;;;;;;;4979704;28;20077;-84
2021/04/20 03:23:55;;;;;;;49.55;29.65;;;;;;;;;;4979554;28;20038;-84
2021/04/20 03:26:30;;;;;;;40.72;28.08;;;;;;;;;;4979569;28;20023;-84
2021/04/20 03:28:57;;;;;;;42.30;28.40;;;;;;;;;;4979700;28;20035;-83
2021/04/20 03:31:23;;;;;;;40.92;28.77;;;;;;;;;;4979235;28;20549;-83
2021/04/20 03:34:03;;;;;;;45.42;30.58;;;;;;;;;;4979485;28;20031;-83
2021/04/20 03:36:38;;;;;;;49.08;33.55;;;;;;;;;;4979477;28;20023;-83
2021/04/20 03:39:07;;;;;;;61.08;36.30;;;;;;;;;;4979204;28;20084;-83
2021/04/20 03:41:36;;;;;;;52.03;33.70;;;;;;;;;;4979248;28;20030;-83
2021/04/20 03:44:03;;;;;;;44.67;30.63;;;;;;;;;;4962019;28;20030;-83
2021/04/20 03:46:32;;;;;;;44.95;30.58;;;;;;;;;;4979174;28;20035;-83
2021/04/20 03:55:05;;;;;;;41.33;28.98;;;;;;;;;;4979058;28;20130;-83
2021/04/20 03:57:34;;;;;;;45.47;32.22;;;;;;;;;;4979375;28;20329;-84
2021/04/20 04:00:01;;;;;;;46.17;31.58;;;;;;;;;;4979305;28;20054;-84
2021/04/20 04:02:28;;;;;;;50.13;34.70;;;;;;;;;;4979458;28;20081;-84
2021/04/20 04:05:31;;;;;;;52.90;34.03;;;;;;;;;;4979175;28;20310;-84
2021/04/20 04:08:00;;;;;;;50.45;33.25;;;;;;;;;;4961901;28;20031;-84
2021/04/20 04:10:30;;;;;;;53.70;34.08;;;;;;;;;;4978674;28;20056;-83
2021/04/20 04:13:00;;;;;;;60.00;36.17;;;;;;;;;;4978709;28;20027;-84
2021/04/20 04:15:27;;;;;;;52.08;34.88;;;;;;;;;;4978913;28;20294;-84
2021/04/20 04:17:54;;;;;;;49.30;32.72;;;;;;;;;;4961765;28;20030;-82
2021/04/20 04:20:20;;;;;;;49.58;34.20;;;;;;;;;;4978889;28;20023;-83
2021/04/20 04:22:53;;;;;;;49.15;34.30;;;;;;;;;;4978478;28;20066;-83
2021/04/20 04:25:22;;;;;;;51.80;34.88;;;;;;;;;;4978961;28;20325;-83
2021/04/20 04:27:50;;;;;;;56.15;36.13;;;;;;;;;;4978922;28;20034;-84
2021/04/20 04:30:17;;;;;;;67.18;40.03;;;;;;;;;;4961650;28;20121;-84
2021/04/20 04:32:44;;;;;;;78.40;43.60;;;;;;;;;;4978737;28;20037;-84
2021/04/20 04:35:11;;;;;;;59.35;35.15;;;;;;;;;;4978819;28;20027;-84
2021/04/20 04:37:37;;;;;;;72.53;40.15;;;;;;;;;;4978992;28;20019;-84
2021/04/20 04:40:04;;;;;;;86.18;42.28;;;;;;;;;;4961390;28;20082;-84
2021/04/20 04:42:31;;;;;;;80.07;40.05;;;;;;;;;;4978643;28;20073;-84
2021/04/20 04:44:57;;;;;;;77.18;40.15;;;;;;;;;;4978992;28;20101;-84
2021/04/20 04:47:23;;;;;;;62.25;37.28;;;;;;;;;;4978764;28;20025;-84
2021/04/20 04:49:50;;;;;;;49.70;33.63;;;;;;;;;;4961411;28;20129;-84
2021/04/20 04:52:17;;;;;;;49.00;32.85;;;;;;;;;;4978649;28;20086;-83
2021/04/20 04:54:43;;;;;;;46.42;32.58;;;;;;;;;;4978528;28;20023;-83
2021/04/20 04:57:10;;;;;;;61.85;35.03;;;;;;;;;;4978729;28;20026;-83
2021/04/20 04:59:37;;;;;;;79.28;37.85;;;;;;;;;;4978647;28;20023;-83
2021/04/20 05:02:04;;;;;;;101.03;39.85;;;;;;;;;;4978323;28;20023;-83
2021/04/20 05:04:30;;;;;;;82.57;35.65;;;;;;;;;;4981698;28;20042;-83
2021/04/20 05:06:56;;;;;;;74.95;36.35;;;;;;;;;;4964955;28;20027;-83
2021/04/20 05:09:23;;;;;;;76.30;38.05;;;;;;;;;;4964783;28;20324;-83
2021/04/20 05:11:50;;;;;;;69.00;37.90;;;;;;;;;;4982179;28;20035;-83
2021/04/20 05:14:16;;;;;;;57.40;34.90;;;;;;;;;;4982046;28;20050;-83
2021/04/20 05:16:45;;;;;;;49.83;34.08;;;;;;;;;;4981798;28;20027;-83
2021/04/20 05:25:32;;;;;;;52.97;36.58;;;;;;;;;;4979683;28;20150;-83
2021/04/20 05:27:58;;;;;;;54.25;37.80;;;;;;;;;;4981971;28;20035;-84
2021/04/20 05:30:26;;;;;;;52.55;34.38;;;;;;;;;;4981853;28;20042;-82
2021/04/20 05:32:52;;;;;;;45.90;32.53;;;;;;;;;;4981397;28;20035;-81
2021/04/20 05:35:20;;;;;;;52.22;35.75;;;;;;;;;;4981347;28;20086;-82
2021/04/20 05:37:46;;;;;;;50.33;34.83;;;;;;;;;;4981344;28;20026;-81
2021/04/20 05:40:37;;;;;;;55.50;36.97;;;;;;;;;;4964151;28;20031;-82
2021/04/20 05:43:05;;;;;;;54.63;33.88;;;;;;;;;;4981011;28;20041;-81
2021/04/20 05:45:31;;;;;;;81.40;44.88;;;;;;;;;;4981182;28;20038;-82
2021/04/20 05:47:59;;;;;;;73.22;42.08;;;;;;;;;;4981286;28;20345;-82
2021/04/20 05:50:50;;;;;;;52.63;34.60;;;;;;;;;;4980977;28;20027;-88
2021/04/20 05:53:16;;;;;;;59.15;37.75;;;;;;;;;;4981269;28;20027;-82
2021/04/20 05:55:42;;;;;;;56.85;36.45;;;;;;;;;;4980886;28;20026;-81
2021/04/20 05:58:11;;;;;;;66.00;38.65;;;;;;;;;;4980956;28;20030;-81
2021/04/20 06:00:37;;;;;;;62.67;38.47;;;;;;;;;;4981029;28;20027;-82
2021/04/20 06:03:03;;;;;;;58.67;36.58;;;;;;;;;;4980795;28;20439;-81
2021/04/20 06:06:06;;;;;;;71.30;42.22;;;;;;;;;;4980645;28;20046;-82
2021/04/20 06:08:34;;;;;;;139.00;72.80;;;;;;;;;;4980578;28;20042;-81
2021/04/20 06:11:00;;;;;;;155.45;89.13;;;;;;;;;;4980609;28;20051;-82
2021/04/20 06:13:26;;;;;;;205.80;113.20;;;;;;;;;;4980644;28;20066;-81
2021/04/20 06:15:56;;;;;;;253.02;119.18;;;;;;;;;;4962021;28;20052;-81
2021/04/20 06:18:22;;;;;;;342.20;160.63;;;;;;;;;;4980969;28;20050;-82
2021/04/20 06:20:49;;;;;;;249.63;136.00;;;;;;;;;;4963396;28;20034;-82
2021/04/20 06:23:16;;;;;;;122.32;80.97;;;;;;;;;;4963250;28;20035;-82
2021/04/20 06:25:43;;;;;;;115.25;68.20;;;;;;;;;;4980054;28;20418;-82
2021/04/20 06:28:11;;;;;;;121.57;71.18;;;;;;;;;;4980546;28;20042;-82
2021/04/20 06:30:37;;;;;;;93.80;53.17;;;;;;;;;;4979983;28;20015;-82
2021/04/20 06:33:03;;;;;;;87.43;51.13;;;;;;;;;;4980158;28;20473;-81
2021/04/20 06:35:29;;;;;;;74.65;47.33;;;;;;;;;;4964013;28;20102;-82
2021/04/20 06:37:55;;;;;;;68.82;43.53;;;;;;;;;;4969933;28;20026;-82
2021/04/20 06:40:25;;;;;;;67.03;43.40;;;;;;;;;;4980014;28;20030;-82
2021/04/20 06:42:53;;;;;;;66.93;43.17;;;;;;;;;;4980466;28;20035;-82
2021/04/20 06:45:24;;;;;;;68.35;43.35;;;;;;;;;;4980343;28;20046;-82
2021/04/20 06:47:56;;;;;;;71.35;44.13;;;;;;;;;;4980171;28;20295;-82
2021/04/20 06:50:24;;;;;;;79.50;47.28;;;;;;;;;;4980275;28;20058;-81
2021/04/20 06:52:59;;;;;;;86.65;51.03;;;;;;;;;;4979841;28;20035;-81
2021/04/20 06:55:25;;;;;;;81.55;49.08;;;;;;;;;;4962959;28;20046;-81
2021/04/20 06:57:51;;;;;;;77.93;49.40;;;;;;;;;;4979933;28;20027;-83
2021/04/20 07:00:19;;;;;;;88.32;55.05;;;;;;;;;;4980143;28;20357;-81
2021/04/20 07:02:57;;;;;;;84.50;52.80;;;;;;;;;;4979782;28;20050;-82
2021/04/20 07:05:26;;;;;;;78.88;50.28;;;;;;;;;;4979661;28;20033;-82
2021/04/20 07:08:08;;;;;;;86.82;51.35;;;;;;;;;;4962432;28;20318;-82
2021/04/20 07:10:39;;;;;;;77.55;47.97;;;;;;;;;;4979450;28;20078;-82
2021/04/20 07:13:08;;;;;;;75.63;46.05;;;;;;;;;;4979646;28;20050;-81
2021/04/20 07:15:37;;;;;;;70.78;43.97;;;;;;;;;;4979598;28;20027;-81
2021/04/20 07:18:06;;;;;;;66.20;41.38;;;;;;;;;;4979618;28;20027;-81
2021/04/20 07:21:01;;;;;;;67.18;43.47;;;;;;;;;;4962322;28;20027;-82
2021/04/20 07:23:46;;;;;;;74.07;45.85;;;;;;;;;;4901003;29;20040;-81
2021/04/20 07:26:12;;;;;;;81.70;48.53;;;;;;;;;;4900998;29;20032;-81
2021/04/20 07:28:58;;;;;;;89.68;52.15;;;;;;;;;;4901080;29;20063;-79
2021/04/20 07:31:43;;;;;;;121.85;66.18;;;;;;;;;;4900879;29;20033;-81
2021/04/20 07:34:16;;;;;;;158.98;77.40;;;;;;;;;;4900998;29;20328;-81
2021/04/20 07:37:06;;;;;;;116.63;61.97;;;;;;;;;;4900928;29;20083;-83
2021/04/20 07:39:37;;;;;;;88.75;53.05;;;;;;;;;;4900835;29;20033;-82
2021/04/20 07:42:26;;;;;;;148.93;79.20;;;;;;;;;;4901045;29;20032;-82
2021/04/20 07:45:14;;;;;;;181.18;111.90;;;;;;;;;;4863632;29;20080;-82
2021/04/20 07:47:46;;;;;;;85.68;56.03;;;;;;;;;;4863660;29;20378;-83
2021/04/20 07:53:25;;;;;;;109.25;59.40;;;;;;;;;;4863662;29;20048;-84
2021/04/20 07:55:56;;;;;;;85.53;52.05;;;;;;;;;;4863926;29;20112;-83
2021/04/20 07:58:25;;;;;;;73.18;47.13;;;;;;;;;;4863905;29;20301;-84
2021/04/20 08:00:59;;;;;;;88.93;50.45;;;;;;;;;;4898154;29;20048;-83
2021/04/20 08:03:39;;;;;;;86.95;50.35;;;;;;;;;;4885096;29;20092;-84
2021/04/20 08:09:12;;;;;;;92.00;51.42;;;;;;;;;;4901024;29;20051;-83
2021/04/20 08:11:43;;;;;;;60.78;40.13;;;;;;;;;;4900616;29;20058;-84
2021/04/20 08:14:27;;;;;;;60.63;41.38;;;;;;;;;;4900835;29;20446;-83
2021/04/20 08:17:03;;;;;;;65.47;43.38;;;;;;;;;;4900188;29;20029;-83
2021/04/20 08:22:33;;;;;;;81.30;51.80;;;;;;;;;;4952026;28;20037;-83
2021/04/20 08:25:19;;;;;;;71.30;46.28;;;;;;;;;;4978317;28;20118;-83
2021/04/20 08:27:48;;;;;;;71.30;46.70;;;;;;;;;;4974645;28;20030;-82
2021/04/20 08:30:14;;;;;;;77.82;52.05;;;;;;;;;;4962930;28;20057;-83
2021/04/20 08:32:43;;;;;;;72.05;47.15;;;;;;;;;;4966463;28;20039;-82
2021/04/20 08:38:31;;;;;;;68.15;44.63;;;;;;;;;;4958730;28;20034;-83
2021/04/20 08:41:08;;;;;;;60.00;40.75;;;;;;;;;;4959367;29;20027;-83
2021/04/20 08:43:42;;;;;;;61.25;40.28;;;;;;;;;;4941865;29;20039;-82
2021/04/20 08:46:18;;;;;;;63.70;45.15;;;;;;;;;;4959016;29;20469;-83
2021/04/20 08:49:02;;;;;;;70.35;48.05;;;;;;;;;;4960361;28;20445;-84
2021/04/20 08:54:50;;;;;;;66.15;46.25;;;;;;;;;;4959599;29;20070;-83
2021/04/20 08:57:26;;;;;;;67.85;46.80;;;;;;;;;;4959460;29;20023;-85
2021/04/20 09:00:04;;;;;;;66.75;46.35;;;;;;;;;;4959333;29;20027;-85
2021/04/20 09:02:36;;;;;;;63.53;44.97;;;;;;;;;;4959466;29;20028;-85
2021/04/20 09:05:05;;;;;;;65.38;45.25;;;;;;;;;;4959120;29;20031;-85
2021/04/20 09:07:50;;;;;;;64.13;44.15;;;;;;;;;;4942060;29;20043;-86
2021/04/20 09:10:17;;;;;;;49.55;35.03;;;;;;;;;;4959055;29;20031;-84
2021/04/20 09:12:45;;;;;;;51.22;36.15;;;;;;;;;;4958815;29;20038;-83
2021/04/20 09:15:13;;;;;;;50.70;36.08;;;;;;;;;;4942382;29;20414;-83
2021/04/20 09:17:43;;;;;;;43.97;32.35;;;;;;;;;;4958887;29;20410;-85
2021/04/20 09:20:14;;;;;;;48.75;35.67;;;;;;;;;;4958910;29;20034;-86
2021/04/20 09:22:40;;;;;;;59.55;41.50;;;;;;;;;;4959070;29;20039;-86
2021/04/20 09:25:11;;;;;;;60.78;41.33;;;;;;;;;;4958818;29;20109;-86
2021/04/20 09:27:51;;;;;;;81.82;50.53;;;;;;;;;;4960632;28;20023;-86
2021/04/20 09:30:19;;;;;;;54.60;38.35;;;;;;;;;;4959225;29;20031;-86
2021/04/20 09:32:47;;;;;;;50.67;36.95;;;;;;;;;;4941872;29;20084;-86
2021/04/20 09:38:18;;;;;;;52.42;39.25;;;;;;;;;;4958827;28;20038;-86
2021/04/20 09:40:46;;;;;;;42.00;32.20;;;;;;;;;;4941506;29;20039;-85
2021/04/20 09:43:24;;;;;;;54.30;39.03;;;;;;;;;;4941470;29;20386;-86
2021/04/20 09:45:56;;;;;;;46.80;36.08;;;;;;;;;;4941913;29;20070;-86
2021/04/20 09:48:37;;;;;;;47.10;34.90;;;;;;;;;;4959045;28;20070;-87
2021/04/20 09:51:13;;;;;;;44.38;33.85;;;;;;;;;;4961446;29;20027;-86
2021/04/20 09:53:58;;;;;;;60.58;42.65;;;;;;;;;;4945627;29;20107;-87
2021/04/20 09:56:35;;;;;;;38.13;30.15;;;;;;;;;;4945246;29;20410;-86
2021/04/20 09:59:02;;;;;;;48.90;34.00;;;;;;;;;;4946486;29;20349;-89
2021/04/20 10:01:37;;;;;;;53.72;37.10;;;;;;;;;;4962156;29;20023;-86
2021/04/20 10:04:07;;;;;;;51.38;36.58;;;;;;;;;;4944753;29;20448;-86
2021/04/20 10:13:00;;;;;;;51.03;36.50;;;;;;;;;;4961924;29;20123;-85
2021/04/20 10:15:39;;;;;;;53.72;34.90;;;;;;;;;;4962099;29;20113;-86
2021/04/20 10:18:15;;;;;;;46.88;34.22;;;;;;;;;;4953648;28;20024;-86
2021/04/20 10:21:00;;;;;;;45.70;34.63;;;;;;;;;;4973180;28;20407;-85
2021/04/20 10:23:26;;;;;;;39.55;30.42;;;;;;;;;;4973573;28;20066;-86
2021/04/20 10:26:20;;;;;;;44.55;32.67;;;;;;;;;;4963785;28;20178;-86
2021/04/20 10:28:54;;;;;;;40.50;28.85;;;;;;;;;;4887200;29;20040;-86
2021/04/20 10:31:23;;;;;;;38.05;29.20;;;;;;;;;;4886987;29;20072;-85
2021/04/20 10:33:50;;;;;;;49.10;34.22;;;;;;;;;;4886987;29;20124;-87
2021/04/20 10:36:18;;;;;;;37.63;29.98;;;;;;;;;;4887430;29;20076;-86
2021/04/20 10:38:44;;;;;;;41.05;30.30;;;;;;;;;;4902693;29;20037;-87
2021/04/20 10:41:23;;;;;;;43.55;30.98;;;;;;;;;;4912481;29;20028;-86
2021/04/20 10:43:51;;;;;;;38.60;29.08;;;;;;;;;;4905530;29;20027;-88
2021/04/20 10:46:23;;;;;;;34.95;27.25;;;;;;;;;;4921352;29;20036;-84
2021/04/20 10:48:50;;;;;;;41.58;30.52;;;;;;;;;;4921462;29;20035;-89
2021/04/20 10:57:23;;;;;;;39.38;29.17;;;;;;;;;;4921513;29;20068;-91
2021/04/20 10:59:51;;;;;;;43.53;33.13;;;;;;;;;;4921322;29;20060;-90
2021/04/20 11:02:18;;;;;;;37.08;28.08;;;;;;;;;;4905217;29;20028;-89
2021/04/20 11:04:45;;;;;;;38.85;29.10;;;;;;;;;;4913025;29;20035;-89
2021/04/20 11:07:14;;;;;;;38.85;28.23;;;;;;;;;;4961115;29;20035;-89
2021/04/20 11:09:40;;;;;;;32.20;25.73;;;;;;;;;;4960774;28;20032;-89
2021/04/20 11:12:17;;;;;;;37.90;25.83;;;;;;;;;;4959731;29;20036;-90
2021/04/20 11:14:47;;;;;;;34.78;26.33;;;;;;;;;;4960752;28;20031;-92
2021/04/20 11:17:34;;;;;;;32.58;25.38;;;;;;;;;;4960964;28;20102;-89
2021/04/20 11:20:10;;;;;;;30.05;23.27;;;;;;;;;;4960577;28;20090;-89
2021/04/20 11:25:42;;;;;;;33.42;26.38;;;;;;;;;;4972992;28;20100;-85
2021/04/20 11:28:20;;;;;;;35.78;27.30;;;;;;;;;;4962784;28;20059;-89
2021/04/20 11:30:54;;;;;;;32.85;26.00;;;;;;;;;;4962844;28;20157;-89
2021/04/20 11:33:22;;;;;;;35.08;24.75;;;;;;;;;;4979788;28;20035;-89
2021/04/20 11:35:48;;;;;;;46.08;31.98;;;;;;;;;;4962820;28;20022;-90
2021/04/20 11:38:15;;;;;;;31.52;24.92;;;;;;;;;;4979560;28;20027;-88
2021/04/20 11:40:45;;;;;;;885.78;106.60;;;;;;;;;;4979442;28;20038;-90
2021/04/20 11:43:15;;;;;;;40.13;27.15;;;;;;;;;;4962570;28;20026;-89
2021/04/20 11:45:42;;;;;;;32.67;25.73;;;;;;;;;;4979509;28;20031;-89
2021/04/20 11:48:12;;;;;;;34.10;26.52;;;;;;;;;;4979679;28;20027;-89
2021/04/20 11:50:39;;;;;;;33.47;26.33;;;;;;;;;;4979485;28;20443;-90
2021/04/20 11:56:46;;;;;;;37.20;25.45;;;;;;;;;;4979673;28;20416;-90
2021/04/20 11:59:13;;;;;;;32.30;25.55;;;;;;;;;;4979141;28;20034;-89
2021/04/20 12:01:40;;;;;;;34.50;26.75;;;;;;;;;;4979205;28;20031;-89
2021/04/20 12:04:07;;;;;;;34.38;26.05;;;;;;;;;;4962083;28;20081;-89
2021/04/20 12:06:41;;;;;;;38.03;28.25;;;;;;;;;;4961829;28;20035;-89
2021/04/20 12:09:07;;;;;;;34.00;25.48;;;;;;;;;;4979125;28;20030;-90
2021/04/20 12:11:34;;;;;;;33.10;26.08;;;;;;;;;;4961937;28;20150;-90
2021/04/20 12:14:01;;;;;;;35.22;28.05;;;;;;;;;;4961803;28;20033;-90
2021/04/20 12:16:32;;;;;;;40.78;29.90;;;;;;;;;;4962372;28;20035;-89
2021/04/20 12:18:58;;;;;;;34.55;26.05;;;;;;;;;;4961734;28;20046;-89
2021/04/20 12:24:29;;;;;;;37.03;28.42;;;;;;;;;;4979003;28;20042;-88
2021/04/20 12:26:56;;;;;;;33.78;26.92;;;;;;;;;;4979143;28;20047;-88
2021/04/20 12:29:27;;;;;;;31.67;24.02;;;;;;;;;;4978811;28;20023;-89
2021/04/20 12:31:53;;;;;;;30.05;23.45;;;;;;;;;;4979128;28;20035;-89
2021/04/20 12:34:26;;;;;;;31.75;25.08;;;;;;;;;;4979234;28;20317;-89
2021/04/20 12:40:16;;;;;;;35.25;25.77;;;;;;;;;;4978877;28;20034;-89
2021/04/20 12:42:46;;;;;;;32.83;24.27;;;;;;;;;;4978582;28;20031;-90
2021/04/20 12:45:17;;;;;;;29.92;23.08;;;;;;;;;;4971402;28;20035;-90
2021/04/20 12:47:43;;;;;;;45.13;32.00;;;;;;;;;;4961096;28;20101;-90
2021/04/20 12:50:11;;;;;;;65.63;43.33;;;;;;;;;;4973839;28;20027;-90
2021/04/20 12:52:41;;;;;;;36.25;28.45;;;;;;;;;;4961619;28;20052;-89
2021/04/20 12:55:10;;;;;;;64.95;44.88;;;;;;;;;;4977219;28;20025;-90
2021/04/20 12:57:37;;;;;;;54.50;39.00;;;;;;;;;;4949610;28;20324;-90
2021/04/20 13:00:20;;;;;;;38.47;28.73;;;;;;;;;;4970013;28;20014;-90
2021/04/20 13:02:47;;;;;;;50.33;35.28;;;;;;;;;;4968498;28;20031;-89
2021/04/20 13:05:15;;;;;;;48.92;34.17;;;;;;;;;;4960513;28;20125;-89
2021/04/20 13:13:49;;;;;;;37.58;27.73;;;;;;;;;;4979038;28;20090;-90
2021/04/20 13:16:15;;;;;;;48.60;33.55;;;;;;;;;;4978348;28;20030;-89
2021/04/20 13:18:41;;;;;;;44.00;31.35;;;;;;;;;;4978347;28;20062;-89
2021/04/20 13:21:07;;;;;;;40.13;29.35;;;;;;;;;;4978297;28;20402;-90
2021/04/20 13:23:34;;;;;;;42.50;31.00;;;;;;;;;;4979239;28;20345;-89
2021/04/20 13:26:01;;;;;;;43.00;30.95;;;;;;;;;;4964855;28;20421;-90
2021/04/20 13:28:28;;;;;;;46.72;32.72;;;;;;;;;;4981957;28;20031;-90
2021/04/20 13:30:54;;;;;;;45.30;31.27;;;;;;;;;;4982278;28;20034;-89
2021/04/20 13:33:23;;;;;;;44.10;29.92;;;;;;;;;;4982339;28;20408;-89
2021/04/20 13:35:51;;;;;;;43.35;30.17;;;;;;;;;;4964804;28;20031;-90
2021/04/20 13:38:18;;;;;;;39.53;30.35;;;;;;;;;;4982035;28;20026;-90
2021/04/20 13:40:44;;;;;;;45.97;31.17;;;;;;;;;;4964441;28;20035;-90
2021/04/20 13:43:12;;;;;;;46.00;31.38;;;;;;;;;;4964886;28;20483;-90
2021/04/20 13:45:39;;;;;;;35.80;25.63;;;;;;;;;;4981952;28;20027;-90
2021/04/20 13:48:07;;;;;;;38.22;27.38;;;;;;;;;;4981981;28;20349;-89
2021/04/20 13:50:43;;;;;;;46.13;33.13;;;;;;;;;;4964574;28;20118;-90
2021/04/20 13:53:11;;;;;;;42.45;31.67;;;;;;;;;;4981894;28;20022;-89
2021/04/20 13:55:38;;;;;;;47.13;32.50;;;;;;;;;;4981502;28;20023;-89
2021/04/20 13:58:06;;;;;;;54.42;30.40;;;;;;;;;;4964548;28;20302;-88
2021/04/20 14:00:35;;;;;;;45.55;29.65;;;;;;;;;;4964418;28;20074;-89
2021/04/20 14:03:01;;;;;;;41.35;30.08;;;;;;;;;;4981560;28;20406;-90
2021/04/20 14:05:36;;;;;;;46.42;32.17;;;;;;;;;;4964820;28;20030;-89
2021/04/20 14:08:05;;;;;;;43.10;30.45;;;;;;;;;;4981369;28;20045;-89
2021/04/20 14:10:32;;;;;;;39.70;29.95;;;;;;;;;;4963724;28;20031;-90
2021/04/20 14:13:04;;;;;;;48.83;30.77;;;;;;;;;;4980149;28;20169;-88
2021/04/20 14:15:41;;;;;;;43.40;31.00;;;;;;;;;;4961528;29;20031;-88
2021/04/20 14:18:15;;;;;;;40.88;29.70;;;;;;;;;;4961645;29;20024;-89
2021/04/20 14:20:46;;;;;;;57.70;38.20;;;;;;;;;;4962013;29;20090;-88
2021/04/20 14:26:20;;;;;;;44.38;32.28;;;;;;;;;;4944429;29;20320;-89
2021/04/20 14:28:47;;;;;;;42.13;31.05;;;;;;;;;;4961914;29;20043;-89
2021/04/20 14:31:17;;;;;;;41.95;30.05;;;;;;;;;;4979058;28;20370;-89
2021/04/20 14:33:45;;;;;;;44.00;30.38;;;;;;;;;;4981091;28;20030;-90
2021/04/20 14:39:15;;;;;;;45.65;30.98;;;;;;;;;;4980801;28;20082;-89
2021/04/20 14:41:42;;;;;;;32.97;24.92;;;;;;;;;;4981035;28;20049;-88
2021/04/20 14:44:29;;;;;;;39.85;26.30;;;;;;;;;;4980894;28;20093;-89
2021/04/20 14:47:00;;;;;;;43.55;28.15;;;;;;;;;;4963728;28;20031;-89
2021/04/20 14:49:29;;;;;;;59.45;34.15;;;;;;;;;;4980838;28;20049;-88
2021/04/20 14:51:56;;;;;;;37.63;25.17;;;;;;;;;;4980827;28;20111;-88
2021/04/20 14:54:27;;;;;;;35.30;25.27;;;;;;;;;;4963492;28;20023;-88
2021/04/20 14:56:55;;;;;;;36.28;25.20;;;;;;;;;;4980784;28;20105;-88
2021/04/20 14:59:25;;;;;;;34.28;24.60;;;;;;;;;;4980685;28;20098;-88
2021/04/20 15:01:57;;;;;;;30.80;22.25;;;;;;;;;;4980684;28;20030;-89
2021/04/20 15:04:25;;;;;;;53.90;34.25;;;;;;;;;;4980707;28;20054;-89
2021/04/20 15:07:17;;;;;;;37.10;25.55;;;;;;;;;;4980515;28;20098;-88
2021/04/20 15:09:50;;;;;;;34.22;23.50;;;;;;;;;;4960838;28;20045;-89
2021/04/20 15:12:42;;;;;;;38.97;27.50;;;;;;;;;;4963315;28;20043;-88
2021/04/20 15:15:08;;;;;;;32.33;23.65;;;;;;;;;;4920953;29;20125;-89
2021/04/20 15:17:36;;;;;;;35.83;24.83;;;;;;;;;;4920834;29;20305;-89
2021/04/20 15:20:04;;;;;;;37.97;26.02;;;;;;;;;;4904653;29;20155;-88
2021/04/20 15:22:30;;;;;;;34.80;25.58;;;;;;;;;;4921063;29;20415;-88
2021/04/20 15:25:03;;;;;;;31.50;23.75;;;;;;;;;;4920576;29;20061;-88
2021/04/20 15:27:39;;;;;;;32.72;23.85;;;;;;;;;;4920477;29;20056;-88
2021/04/20 15:30:22;;;;;;;35.28;24.58;;;;;;;;;;4917568;29;20036;-90
2021/04/20 15:32:48;;;;;;;;;;;;;;;;;;4904873;29;20044;-90
2021/04/20 15:35:15;;;;;;;39.88;24.80;;;;;;;;;;4919967;29;19907;-90
2021/04/20 15:37:42;;;;;;;42.50;25.10;;;;;;;;;;4904673;29;20040;-91
2021/04/20 15:40:10;;;;;;;33.42;21.70;;;;;;;;;;4904050;29;20040;-90
2021/04/20 15:42:36;;;;;;;30.40;21.40;;;;;;;;;;4904125;29;20040;-91
2021/04/20 15:45:04;;;;;;;31.73;22.52;;;;;;;;;;4919453;29;20040;-90
2021/04/20 15:47:32;;;;;;;32.20;22.90;;;;;;;;;;4914094;29;20032;-90
2021/04/20 15:50:00;;;;;;;34.30;23.27;;;;;;;;;;4919984;29;20043;-90